Allen Park, MI

1:03 AM EDT on April 21, 2015 (GMT -0400)
Southfield And Outer Drive | | Change Station
CLOSE
Current Station
Personal Weather Station
Location: Allen Park, MI
Elevation: 630 ft
Nearby Weather Stations

Elev 630 ft 42.27 °N, 83.21 °W | Updated 1 second ago

Overcast
Overcast
47.5 °F
Feels Like 45 °F
N
5.8
Wind Variable Wind from WNW
Gusts 7.4 mph

Today
High -- | Low -- °F
--% Chance of Precip.
Yesterday
High -- | Low -- °F
Precip. -- in
6:43 AM 8:20 PM
Waxing Crescent, 8% visible
Pressure 29.60 in
Visibility 10.0 miles
Clouds Scattered Clouds 3500 ft
Overcast 6000 ft
Windchill 45 °F
Dew Point 36 °F
Humidity 64%
Rainfall 0.00 in
Snow Depth Not available.
UV 0.0 out of 12
Pollen 6.80 out of 12
Air Quality Not available.
Flu Activity Regional
METAR KDTW 210453Z 24011KT 10SM SCT035 OVC060 08/01 A2960 RMK AO2 SLP021 T00780011 401890078

More Conditions Fewer Conditions

Pressure 29.60 in
Visibility 10.0 miles
Clouds Scattered Clouds 3500 ft
Overcast 6000 ft
Windchill 45 °F
Dew Point 36 °F
Humidity 64%
Rainfall 0.00 in
Snow Depth Not available.
UV 0.0 out of 12
Pollen 6.80 out of 12
Air Quality Not available.
Flu Activity Regional
METAR KDTW 210453Z 24011KT 10SM SCT035 OVC060 08/01 A2960 RMK AO2 SLP021 T00780011 401890078

More Conditions Fewer Conditions

10-Day Weather Forecast

Almanac

Astronomy

Apr. 21, 2015 Rise Set
Actual Time
Civil Twilight
Nautical Twilight
Astronomical Twilight
Moon
Length of Visible Light
Length of Day
Tomorrow will be .
, % of the Moon is Illuminated

Today's Extremes

State Highs State Lows

Community

WunderPhotos

Upload Photos

1,815,316 photos uploaded!

WunderBlogs® & News

Nearby

Air Quality

  Air Quality AQ Index Pollutant
Not available.

Snow Depth

Station Depth Elevation

Earthquake Activity

City Distance Mag. Time & Date
Minimum magnitude displayed is 2.5.

Coastal Water Temperatures

Place Temperature

Stations

Nearby Weather Stations

Station Location Temp. Windchill Dew Point Humidity Wind Precip. Elev Updated Type